CheckWX is a tool to help pilots better visualize weather data.  It is not intended as a substitute for an official pre-flight weather briefing.

15:37:12 UTC

CYZR TAF
Sarnia Chris Hadfield Airport
Sarnia, Canada
TAF CYZR 171339Z 1714/1802 24012KT P6SM SCT040 RMK FCST BASED ON AUTO OBS. NXT FCST BY 172000Z

Aug-17@
14:00 UTC

Aug-17 @ 14:00 UTC

Aug-18@
02:00 UTC

Aug-18 @ 02:00 UTC

TAF CYZR 171339Z 1714/1802 24012KT P6SM SCT040 RMK FCST BASED ON AUTO OBS. NXT FCST BY 172000Z
Wind
  • 240° at 12 KTS
Cloud Levels
  • Scattered at 4,000' AGL